sensor_id;sensor_type;location;lat;lon;timestamp;pressure;altitude;pressure_sealevel;temperature;humidity
59103;BME280;43999;51.660;5.616;2022-11-23T00:01:36;99352.16;;;7.25;100.00
59103;BME280;43999;51.660;5.616;2022-11-23T00:04:11;99355.47;;;7.27;100.00
59103;BME280;43999;51.660;5.616;2022-11-23T00:06:39;99363.94;;;7.31;100.00
59103;BME280;43999;51.660;5.616;2022-11-23T00:09:08;99363.72;;;7.34;100.00
59103;BME280;43999;51.660;5.616;2022-11-23T00:11:36;99353.22;;;7.35;100.00
59103;BME280;43999;51.660;5.616;2022-11-23T00:14:04;99365.31;;;7.36;100.00
59103;BME280;43999;51.660;5.616;2022-11-23T00:16:31;99359.28;;;7.36;100.00
59103;BME280;43999;51.660;5.616;2022-11-23T00:19:16;99366.13;;;7.37;100.00
59103;BME280;43999;51.660;5.616;2022-11-23T00:21:43;99367.81;;;7.38;100.00
59103;BME280;43999;51.660;5.616;2022-11-23T00:24:11;99372.94;;;7.40;100.00
59103;BME280;43999;51.660;5.616;2022-11-23T00:26:39;99373.75;;;7.40;100.00
59103;BME280;43999;51.660;5.616;2022-11-23T00:29:06;99364.19;;;7.41;100.00
59103;BME280;43999;51.660;5.616;2022-11-23T00:31:33;99367.53;;;7.43;100.00
59103;BME280;43999;51.660;5.616;2022-11-23T00:34:01;99386.31;;;7.48;100.00
59103;BME280;43999;51.660;5.616;2022-11-23T00:36:31;99378.47;;;7.48;100.00
59103;BME280;43999;51.660;5.616;2022-11-23T00:38:59;99380.88;;;7.51;100.00
59103;BME280;43999;51.660;5.616;2022-11-23T00:41:27;99380.88;;;7.51;100.00
59103;BME280;43999;51.660;5.616;2022-11-23T00:43:54;99380.78;;;7.52;100.00
59103;BME280;43999;51.660;5.616;2022-11-23T00:46:26;99385.09;;;7.53;100.00
59103;BME280;43999;51.660;5.616;2022-11-23T00:48:55;99381.66;;;7.53;100.00
59103;BME280;43999;51.660;5.616;2022-11-23T00:51:34;99380.69;;;7.54;100.00
59103;BME280;43999;51.660;5.616;2022-11-23T00:54:04;99382.28;;;7.57;100.00
59103;BME280;43999;51.660;5.616;2022-11-23T00:56:33;99389.16;;;7.58;100.00
59103;BME280;43999;51.660;5.616;2022-11-23T00:59:03;99391.69;;;7.59;100.00
59103;BME280;43999;51.660;5.616;2022-11-23T01:01:34;99387.19;;;7.61;100.00
59103;BME280;43999;51.660;5.616;2022-11-23T01:04:05;99387.09;;;7.63;100.00
59103;BME280;43999;51.660;5.616;2022-11-23T01:06:37;99392.31;;;7.63;100.00
59103;BME280;43999;51.660;5.616;2022-11-23T01:09:17;99384.50;;;7.63;100.00
59103;BME280;43999;51.660;5.616;2022-11-23T01:11:48;99392.22;;;7.64;100.00
59103;BME280;43999;51.660;5.616;2022-11-23T01:14:15;99396.59;;;7.64;100.00
59103;BME280;43999;51.660;5.616;2022-11-23T01:16:43;99388.88;;;7.62;100.00
59103;BME280;43999;51.660;5.616;2022-11-23T01:19:17;99400.13;;;7.63;100.00
59103;BME280;43999;51.660;5.616;2022-11-23T01:21:48;99397.53;;;7.63;100.00
59103;BME280;43999;51.660;5.616;2022-11-23T01:24:20;99398.44;;;7.62;100.00
59103;BME280;43999;51.660;5.616;2022-11-23T01:26:54;99400.84;;;7.65;100.00
59103;BME280;43999;51.660;5.616;2022-11-23T01:29:23;99400.03;;;7.64;100.00
59103;BME280;43999;51.660;5.616;2022-11-23T01:31:50;99404.31;;;7.65;100.00
59103;BME280;43999;51.660;5.616;2022-11-23T01:34:18;99413.78;;;7.66;100.00
59103;BME280;43999;51.660;5.616;2022-11-23T01:36:45;99412.03;;;7.67;100.00
59103;BME280;43999;51.660;5.616;2022-11-23T01:39:13;99412.03;;;7.67;100.00
59103;BME280;43999;51.660;5.616;2022-11-23T01:41:42;99406.81;;;7.67;100.00
59103;BME280;43999;51.660;5.616;2022-11-23T01:44:31;99410.34;;;7.66;100.00
59103;BME280;43999;51.660;5.616;2022-11-23T01:47:06;99400.84;;;7.65;100.00
59103;BME280;43999;51.660;5.616;2022-11-23T01:49:49;99412.97;;;7.66;100.00
59103;BME280;43999;51.660;5.616;2022-11-23T01:52:24;99411.28;;;7.65;100.00
59103;BME280;43999;51.660;5.616;2022-11-23T01:54:56;99417.34;;;7.65;100.00
59103;BME280;43999;51.660;5.616;2022-11-23T01:57:39;99415.78;;;7.63;100.00
59103;BME280;43999;51.660;5.616;2022-11-23T02:00:13;99424.31;;;7.65;100.00
59103;BME280;43999;51.660;5.616;2022-11-23T02:02:52;99414.84;;;7.64;100.00
59103;BME280;43999;51.660;5.616;2022-11-23T02:05:34;99428.59;;;7.66;100.00
59103;BME280;43999;51.660;5.616;2022-11-23T02:08:06;99432.03;;;7.66;100.00
59103;BME280;43999;51.660;5.616;2022-11-23T02:10:38;99433.72;;;7.67;100.00
59103;BME280;43999;51.660;5.616;2022-11-23T02:13:11;99429.34;;;7.68;100.00
59103;BME280;43999;51.660;5.616;2022-11-23T02:15:39;99435.41;;;7.68;100.00
59103;BME280;43999;51.660;5.616;2022-11-23T02:18:15;99437.16;;;7.68;100.00
59103;BME280;43999;51.660;5.616;2022-11-23T02:20:48;99444.88;;;7.69;100.00
59103;BME280;43999;51.660;5.616;2022-11-23T02:23:42;99437.06;;;7.69;100.00
59103;BME280;43999;51.660;5.616;2022-11-23T02:26:36;99438.00;;;7.68;100.00
59103;BME280;43999;51.660;5.616;2022-11-23T02:29:19;99428.41;;;7.69;100.00
59103;BME280;43999;51.660;5.616;2022-11-23T02:31:53;99421.50;;;7.68;100.00
59103;BME280;43999;51.660;5.616;2022-11-23T02:34:23;99438.84;;;7.69;100.00
59103;BME280;43999;51.660;5.616;2022-11-23T02:36:54;99440.53;;;7.70;100.00
59103;BME280;43999;51.660;5.616;2022-11-23T02:39:32;99443.75;;;7.74;100.00
59103;BME280;43999;51.660;5.616;2022-11-23T02:42:04;99436.75;;;7.74;100.00
59103;BME280;43999;51.660;5.616;2022-11-23T02:44:38;99436.66;;;7.76;100.00
59103;BME280;43999;51.660;5.616;2022-11-23T02:47:14;99435.75;;;7.77;100.00
59103;BME280;43999;51.660;5.616;2022-11-23T02:49:45;99437.72;;;7.73;100.00
59103;BME280;43999;51.660;5.616;2022-11-23T02:52:15;99452.13;;;7.79;100.00
59103;BME280;43999;51.660;5.616;2022-11-23T02:54:43;99447.75;;;7.79;100.00
59103;BME280;43999;51.660;5.616;2022-11-23T02:57:11;99452.97;;;7.79;100.00
59103;BME280;43999;51.660;5.616;2022-11-23T02:59:43;99445.88;;;7.81;100.00
59103;BME280;43999;51.660;5.616;2022-11-23T03:02:10;99446.69;;;7.82;100.00
59103;BME280;43999;51.660;5.616;2022-11-23T03:04:38;99437.22;;;7.81;100.00
59103;BME280;43999;51.660;5.616;2022-11-23T03:07:05;99458.00;;;7.82;100.00
59103;BME280;43999;51.660;5.616;2022-11-23T03:09:33;99441.38;;;7.83;100.00
59103;BME280;43999;51.660;5.616;2022-11-23T03:12:01;99443.06;;;7.84;100.00
59103;BME280;43999;51.660;5.616;2022-11-23T03:14:28;99448.19;;;7.86;100.00
59103;BME280;43999;51.660;5.616;2022-11-23T03:16:59;99443.78;;;7.86;100.00
59103;BME280;43999;51.660;5.616;2022-11-23T03:19:31;99449.66;;;7.90;100.00
59103;BME280;43999;51.660;5.616;2022-11-23T03:22:00;99451.53;;;7.88;100.00
59103;BME280;43999;51.660;5.616;2022-11-23T03:24:30;99447.25;;;7.87;100.00
59103;BME280;43999;51.660;5.616;2022-11-23T03:26:59;99444.09;;;7.82;100.00
59103;BME280;43999;51.660;5.616;2022-11-23T03:29:27;99456.41;;;7.80;100.00
59103;BME280;43999;51.660;5.616;2022-11-23T03:31:57;99454.72;;;7.79;100.00
59103;BME280;43999;51.660;5.616;2022-11-23T03:34:25;99453.16;;;7.76;100.00
59103;BME280;43999;51.660;5.616;2022-11-23T03:36:52;99445.44;;;7.75;100.00
59103;BME280;43999;51.660;5.616;2022-11-23T03:39:23;99455.88;;;7.75;100.00
59103;BME280;43999;51.660;5.616;2022-11-23T03:42:09;99461.91;;;7.75;100.00
59103;BME280;43999;51.660;5.616;2022-11-23T03:44:39;99455.88;;;7.75;100.00
59103;BME280;43999;51.660;5.616;2022-11-23T03:47:10;99448.78;;;7.77;100.00
59103;BME280;43999;51.660;5.616;2022-11-23T03:49:37;99458.47;;;7.75;100.00
59103;BME280;43999;51.660;5.616;2022-11-23T03:52:05;99456.81;;;7.74;100.00
59103;BME280;43999;51.660;5.616;2022-11-23T03:54:32;99459.41;;;7.74;100.00
59103;BME280;43999;51.660;5.616;2022-11-23T03:57:02;99456.91;;;7.72;100.00
59103;BME280;43999;51.660;5.616;2022-11-23T03:59:31;99462.22;;;7.70;100.00
59103;BME280;43999;51.660;5.616;2022-11-23T04:01:59;99466.69;;;7.68;100.00
59103;BME280;43999;51.660;5.616;2022-11-23T04:04:31;99470.94;;;7.69;100.00
59103;BME280;43999;51.660;5.616;2022-11-23T04:07:08;99469.19;;;7.70;100.00
59103;BME280;43999;51.660;5.616;2022-11-23T04:09:40;99473.56;;;7.69;100.00
59103;BME280;43999;51.660;5.616;2022-11-23T04:12:22;99465.75;;;7.69;100.00
59103;BME280;43999;51.660;5.616;2022-11-23T04:14:51;99465.75;;;7.69;100.00
59103;BME280;43999;51.660;5.616;2022-11-23T04:17:19;99457.91;;;7.69;100.00
59103;BME280;43999;51.660;5.616;2022-11-23T04:19:49;99462.31;;;7.69;100.00
59103;BME280;43999;51.660;5.616;2022-11-23T04:22:16;99463.22;;;7.68;100.00
59103;BME280;43999;51.660;5.616;2022-11-23T04:24:44;99468.34;;;7.69;100.00
59103;BME280;43999;51.660;5.616;2022-11-23T04:27:11;99468.44;;;7.68;100.00
59103;BME280;43999;51.660;5.616;2022-11-23T04:29:43;99462.50;;;7.66;100.00
59103;BME280;43999;51.660;5.616;2022-11-23T04:32:13;99466.69;;;7.68;100.00
59103;BME280;43999;51.660;5.616;2022-11-23T04:34:41;99460.63;;;7.68;100.00
59103;BME280;43999;51.660;5.616;2022-11-23T04:37:11;99464.09;;;7.68;100.00
59103;BME280;43999;51.660;5.616;2022-11-23T04:39:41;99463.31;;;7.66;100.00
59103;BME280;43999;51.660;5.616;2022-11-23T04:42:19;99465.84;;;7.68;100.00
59103;BME280;43999;51.660;5.616;2022-11-23T04:44:51;99465.66;;;7.71;100.00
59103;BME280;43999;51.660;5.616;2022-11-23T04:47:19;99462.94;;;7.72;100.00
59103;BME280;43999;51.660;5.616;2022-11-23T04:49:47;99457.72;;;7.72;100.00
59103;BME280;43999;51.660;5.616;2022-11-23T04:52:15;99463.03;;;7.71;100.00
59103;BME280;43999;51.660;5.616;2022-11-23T04:54:46;99468.25;;;7.71;100.00
59103;BME280;43999;51.660;5.616;2022-11-23T04:57:14;99462.22;;;7.70;100.00
59103;BME280;43999;51.660;5.616;2022-11-23T04:59:42;99457.09;;;7.69;100.00
59103;BME280;43999;51.660;5.616;2022-11-23T05:02:10;99451.69;;;7.72;100.00
59103;BME280;43999;51.660;5.616;2022-11-23T05:04:48;99460.22;;;7.74;100.00
59103;BME280;43999;51.660;5.616;2022-11-23T05:07:16;99447.28;;;7.72;100.00
59103;BME280;43999;51.660;5.616;2022-11-23T05:09:50;99455.13;;;7.72;100.00
59103;BME280;43999;51.660;5.616;2022-11-23T05:12:20;99453.38;;;7.73;100.00
59103;BME280;43999;51.660;5.616;2022-11-23T05:14:47;99450.94;;;7.70;100.00
59103;BME280;43999;51.660;5.616;2022-11-23T05:17:20;99450.09;;;7.69;100.00
59103;BME280;43999;51.660;5.616;2022-11-23T05:19:50;99461.59;;;7.67;100.00
59103;BME280;43999;51.660;5.616;2022-11-23T05:22:19;99460.63;;;7.68;100.00
59103;BME280;43999;51.660;5.616;2022-11-23T05:24:46;99457.09;;;7.69;100.00
59103;BME280;43999;51.660;5.616;2022-11-23T05:27:20;99460.22;;;7.74;100.00
59103;BME280;43999;51.660;5.616;2022-11-23T05:29:48;99463.59;;;7.76;100.00
59103;BME280;43999;51.660;5.616;2022-11-23T05:32:16;99462.94;;;7.72;100.00
59103;BME280;43999;51.660;5.616;2022-11-23T05:34:43;99465.53;;;7.72;100.00
59103;BME280;43999;51.660;5.616;2022-11-23T05:37:13;99469.00;;;7.73;100.00
59103;BME280;43999;51.660;5.616;2022-11-23T05:39:59;99465.66;;;7.71;100.00
59103;BME280;43999;51.660;5.616;2022-11-23T05:42:26;99465.66;;;7.71;100.00
59103;BME280;43999;51.660;5.616;2022-11-23T05:44:58;99467.31;;;7.72;100.00
59103;BME280;43999;51.660;5.616;2022-11-23T05:47:34;99469.00;;;7.73;100.00
59103;BME280;43999;51.660;5.616;2022-11-23T05:50:05;99468.16;;;7.72;100.00
59103;BME280;43999;51.660;5.616;2022-11-23T05:52:35;99472.44;;;7.74;100.00
59103;BME280;43999;51.660;5.616;2022-11-23T05:55:02;99476.84;;;7.73;100.00
59103;BME280;43999;51.660;5.616;2022-11-23T05:57:30;99475.16;;;7.72;100.00
59103;BME280;43999;51.660;5.616;2022-11-23T05:59:57;99465.53;;;7.72;100.00
59103;BME280;43999;51.660;5.616;2022-11-23T06:02:38;99464.81;;;7.70;100.00
59103;BME280;43999;51.660;5.616;2022-11-23T06:05:09;99462.41;;;7.67;100.00
59103;BME280;43999;51.660;5.616;2022-11-23T06:07:51;99466.88;;;7.65;100.00
59103;BME280;43999;51.660;5.616;2022-11-23T06:10:25;99467.81;;;7.64;100.00
59103;BME280;43999;51.660;5.616;2022-11-23T06:12:54;99462.31;;;7.69;100.00
59103;BME280;43999;51.660;5.616;2022-11-23T06:15:28;99472.00;;;7.67;100.00
59103;BME280;43999;51.660;5.616;2022-11-23T06:18:00;99473.03;;;7.64;100.00
59103;BME280;43999;51.660;5.616;2022-11-23T06:20:38;99471.44;;;7.62;100.00
59103;BME280;43999;51.660;5.616;2022-11-23T06:23:08;99469.97;;;7.58;100.00
59103;BME280;43999;51.660;5.616;2022-11-23T06:25:41;99471.00;;;7.55;100.00
59103;BME280;43999;51.660;5.616;2022-11-23T06:28:14;99478.09;;;7.53;100.00
59103;BME280;43999;51.660;5.616;2022-11-23T06:30:45;99478.91;;;7.53;100.00
59103;BME280;43999;51.660;5.616;2022-11-23T06:33:13;99478.28;;;7.50;100.00
59103;BME280;43999;51.660;5.616;2022-11-23T06:35:58;99474.81;;;7.49;100.00
59103;BME280;43999;51.660;5.616;2022-11-23T06:38:32;99476.59;;;7.49;100.00
59103;BME280;43999;51.660;5.616;2022-11-23T06:41:03;99479.22;;;7.49;100.00
59103;BME280;43999;51.660;5.616;2022-11-23T06:43:31;99484.41;;;7.49;100.00
59103;BME280;43999;51.660;5.616;2022-11-23T06:46:05;99484.31;;;7.50;100.00
59103;BME280;43999;51.660;5.616;2022-11-23T06:48:37;99487.94;;;7.48;100.00
59103;BME280;43999;51.660;5.616;2022-11-23T06:51:06;99482.28;;;7.41;100.00
59103;BME280;43999;51.660;5.616;2022-11-23T06:53:35;99486.22;;;7.34;100.00
59103;BME280;43999;51.660;5.616;2022-11-23T06:56:05;99494.31;;;7.29;100.00
59103;BME280;43999;51.660;5.616;2022-11-23T06:58:34;99490.25;;;7.25;100.00
59103;BME280;43999;51.660;5.616;2022-11-23T07:01:08;99500.84;;;7.22;100.00
59103;BME280;43999;51.660;5.616;2022-11-23T07:03:43;99511.44;;;7.19;100.00
59103;BME280;43999;51.660;5.616;2022-11-23T07:06:39;99513.09;;;7.20;100.00
59103;BME280;43999;51.660;5.616;2022-11-23T07:09:14;99504.47;;;7.20;100.00
59103;BME280;43999;51.660;5.616;2022-11-23T07:11:58;99503.53;;;7.21;100.00
59103;BME280;43999;51.660;5.616;2022-11-23T07:14:26;99520.84;;;7.22;100.00
59103;BME280;43999;51.660;5.616;2022-11-23T07:16:54;99521.31;;;7.28;100.00
59103;BME280;43999;51.660;5.616;2022-11-23T07:19:22;99525.47;;;7.31;100.00
59103;BME280;43999;51.660;5.616;2022-11-23T07:21:50;99525.47;;;7.31;100.00
59103;BME280;43999;51.660;5.616;2022-11-23T07:24:18;99518.53;;;7.31;100.00
59103;BME280;43999;51.660;5.616;2022-11-23T07:26:45;99540.00;;;7.35;100.00
59103;BME280;43999;51.660;5.616;2022-11-23T07:29:16;99536.56;;;7.34;100.00
59103;BME280;43999;51.660;5.616;2022-11-23T07:31:44;99541.88;;;7.33;100.00
59103;BME280;43999;51.660;5.616;2022-11-23T07:34:13;99541.13;;;7.31;100.00
59103;BME280;43999;51.660;5.616;2022-11-23T07:36:41;99542.06;;;7.30;100.00
59103;BME280;43999;51.660;5.616;2022-11-23T07:39:10;99543.81;;;7.29;100.00
59103;BME280;43999;51.660;5.616;2022-11-23T07:41:37;99548.28;;;7.27;100.00
59103;BME280;43999;51.660;5.616;2022-11-23T07:44:10;99558.44;;;7.32;100.00
59103;BME280;43999;51.660;5.616;2022-11-23T07:46:37;99555.47;;;7.38;100.00
59103;BME280;43999;51.660;5.616;2022-11-23T07:49:05;99551.16;;;7.37;100.00
59103;BME280;43999;51.660;5.616;2022-11-23T07:51:32;99560.84;;;7.35;100.00
59103;BME280;43999;51.660;5.616;2022-11-23T07:53:59;99560.13;;;7.33;100.00
59103;BME280;43999;51.660;5.616;2022-11-23T07:56:27;99563.66;;;7.32;100.00
59103;BME280;43999;51.660;5.616;2022-11-23T07:58:54;99569.88;;;7.29;100.00
59103;BME280;43999;51.660;5.616;2022-11-23T08:01:21;99566.72;;;7.24;100.00
59103;BME280;43999;51.660;5.616;2022-11-23T08:03:48;99572.03;;;7.23;100.00
59103;BME280;43999;51.660;5.616;2022-11-23T08:06:16;99572.13;;;7.21;100.00
59103;BME280;43999;51.660;5.616;2022-11-23T08:08:43;99565.31;;;7.18;100.00
59103;BME280;43999;51.660;5.616;2022-11-23T08:11:11;99571.38;;;7.19;100.00
59103;BME280;43999;51.660;5.616;2022-11-23T08:13:40;99575.00;;;7.16;100.00
59103;BME280;43999;51.660;5.616;2022-11-23T08:16:08;99572.56;;;7.13;100.00
59103;BME280;43999;51.660;5.616;2022-11-23T08:18:35;99577.78;;;7.13;100.00
59103;BME280;43999;51.660;5.616;2022-11-23T08:21:03;99576.09;;;7.12;100.00
59103;BME280;43999;51.660;5.616;2022-11-23T08:23:30;99571.75;;;7.13;100.00
59103;BME280;43999;51.660;5.616;2022-11-23T08:25:58;99577.50;;;7.18;100.00
59103;BME280;43999;51.660;5.616;2022-11-23T08:28:25;99582.63;;;7.20;100.00
59103;BME280;43999;51.660;5.616;2022-11-23T08:30:52;99585.41;;;7.16;100.00
59103;BME280;43999;51.660;5.616;2022-11-23T08:33:19;99582.63;;;7.20;100.00
59103;BME280;43999;51.660;5.616;2022-11-23T08:35:47;99583.63;;;7.17;100.00
59103;BME280;43999;51.660;5.616;2022-11-23T08:38:14;99583.00;;;7.13;100.00
59103;BME280;43999;51.660;5.616;2022-11-23T08:40:41;99575.28;;;7.12;100.00
59103;BME280;43999;51.660;5.616;2022-11-23T08:43:08;99580.28;;;7.15;100.00
59103;BME280;43999;51.660;5.616;2022-11-23T08:45:36;99589.88;;;7.14;100.00
59103;BME280;43999;51.660;5.616;2022-11-23T08:48:04;99592.59;;;7.13;100.00
59103;BME280;43999;51.660;5.616;2022-11-23T08:50:35;99587.28;;;7.14;100.00
59103;BME280;43999;51.660;5.616;2022-11-23T08:53:03;99596.00;;;7.13;100.00
59103;BME280;43999;51.660;5.616;2022-11-23T08:55:31;99585.59;;;7.13;100.00
59103;BME280;43999;51.660;5.616;2022-11-23T08:57:59;99585.59;;;7.13;100.00
59103;BME280;43999;51.660;5.616;2022-11-23T09:00:27;99587.84;;;7.20;100.00
59103;BME280;43999;51.660;5.616;2022-11-23T09:02:55;99587.66;;;7.23;100.00
59103;BME280;43999;51.660;5.616;2022-11-23T09:05:27;99578.25;;;7.20;100.00
59103;BME280;43999;51.660;5.616;2022-11-23T09:07:59;99571.09;;;7.24;100.00
59103;BME280;43999;51.660;5.616;2022-11-23T09:10:27;99571.00;;;7.25;100.00
59103;BME280;43999;51.660;5.616;2022-11-23T09:12:55;99574.25;;;7.29;100.00
59103;BME280;43999;51.660;5.616;2022-11-23T09:15:22;99581.25;;;7.28;100.00
59103;BME280;43999;51.660;5.616;2022-11-23T09:17:49;99576.03;;;7.28;100.00
59103;BME280;43999;51.660;5.616;2022-11-23T09:20:17;99572.28;;;7.32;100.00
59103;BME280;43999;51.660;5.616;2022-11-23T09:22:51;99566.16;;;7.33;100.00
59103;BME280;43999;51.660;5.616;2022-11-23T09:25:20;99571.19;;;7.36;100.00
59103;BME280;43999;51.660;5.616;2022-11-23T09:27:56;99573.59;;;7.40;100.00
59103;BME280;43999;51.660;5.616;2022-11-23T09:30:30;99565.69;;;7.41;100.00
59103;BME280;43999;51.660;5.616;2022-11-23T09:32:57;99567.28;;;7.44;100.00
59103;BME280;43999;51.660;5.616;2022-11-23T09:35:25;99560.00;;;7.49;100.00
59103;BME280;43999;51.660;5.616;2022-11-23T09:37:57;99560.47;;;7.56;100.00
59103;BME280;43999;51.660;5.616;2022-11-23T09:40:33;99551.81;;;7.55;100.00
59103;BME280;43999;51.660;5.616;2022-11-23T09:43:34;99555.91;;;7.59;100.00
59103;BME280;43999;51.660;5.616;2022-11-23T09:47:11;99556.66;;;7.61;100.00
59103;BME280;43999;51.660;5.616;2022-11-23T09:49:22;99548.34;;;7.69;100.00
59103;BME280;43999;51.660;5.616;2022-11-23T09:52:01;99545.44;;;7.74;100.00
59103;BME280;43999;51.660;5.616;2022-11-23T09:54:36;99534.19;;;7.73;100.00
59103;BME280;43999;51.660;5.616;2022-11-23T09:57:05;99549.66;;;7.76;100.00
59103;BME280;43999;51.660;5.616;2022-11-23T10:02:24;99539.47;;;7.86;100.00
59103;BME280;43999;51.660;5.616;2022-11-23T10:04:56;99537.72;;;7.99;100.00
59103;BME280;43999;51.660;5.616;2022-11-23T10:13:37;99516.84;;;9.68;100.00
59103;BME280;43999;51.660;5.616;2022-11-23T10:16:26;99520.09;;;10.20;100.00
59103;BME280;43999;51.660;5.616;2022-11-23T10:22:21;99508.78;;;11.47;100.00
59103;BME280;43999;51.660;5.616;2022-11-23T10:24:58;99498.34;;;11.79;100.00
59103;BME280;43999;51.660;5.616;2022-11-23T10:27:36;99490.88;;;12.07;100.00
59103;BME280;43999;51.660;5.616;2022-11-23T10:30:12;99490.78;;;12.30;97.73
59103;BME280;43999;51.660;5.616;2022-11-23T10:32:54;99497.09;;;12.60;100.00
59103;BME280;43999;51.660;5.616;2022-11-23T10:35:33;99495.19;;;12.93;90.99
59103;BME280;43999;51.660;5.616;2022-11-23T10:38:21;99495.41;;;13.11;88.03
59103;BME280;43999;51.660;5.616;2022-11-23T10:41:12;99490.19;;;13.20;86.84
59103;BME280;43999;51.660;5.616;2022-11-23T10:49:19;99487.00;;;13.57;83.31
59103;BME280;43999;51.660;5.616;2022-11-23T10:52:23;99491.41;;;13.57;83.35
59103;BME280;43999;51.660;5.616;2022-11-23T10:54:56;99482.16;;;13.53;85.98
59103;BME280;43999;51.660;5.616;2022-11-23T10:57:40;99478.41;;;13.55;83.63
59103;BME280;43999;51.660;5.616;2022-11-23T11:02:45;99468.88;;;13.54;81.87
59103;BME280;43999;51.660;5.616;2022-11-23T11:08:20;99466.06;;;13.46;83.35
59103;BME280;43999;51.660;5.616;2022-11-23T11:11:07;99467.13;;;13.34;82.58
59103;BME280;43999;51.660;5.616;2022-11-23T11:13:48;99462.22;;;13.29;84.19
59103;BME280;43999;51.660;5.616;2022-11-23T11:16:31;99462.28;;;12.98;81.36
59103;BME280;43999;51.660;5.616;2022-11-23T11:19:19;99470.25;;;12.87;85.42
59103;BME280;43999;51.660;5.616;2022-11-23T11:21:47;99467.28;;;13.01;84.04
59103;BME280;43999;51.660;5.616;2022-11-23T11:24:22;99472.47;;;12.91;82.86
59103;BME280;43999;51.660;5.616;2022-11-23T11:27:00;99465.63;;;13.10;81.12
59103;BME280;43999;51.660;5.616;2022-11-23T11:29:46;99456.91;;;13.00;80.42
59103;BME280;43999;51.660;5.616;2022-11-23T11:38:14;99455.91;;;12.70;83.41
59103;BME280;43999;51.660;5.616;2022-11-23T11:40:51;99448.97;;;12.38;83.10
59103;BME280;43999;51.660;5.616;2022-11-23T11:43:34;99436.88;;;12.14;85.31
59103;BME280;43999;51.660;5.616;2022-11-23T11:46:33;99440.28;;;12.05;86.75
59103;BME280;43999;51.660;5.616;2022-11-23T11:49:14;99438.94;;;12.11;88.90
59103;BME280;43999;51.660;5.616;2022-11-23T11:52:10;99421.53;;;12.31;86.34
59103;BME280;43999;51.660;5.616;2022-11-23T11:55:32;99421.41;;;12.32;84.66
59103;BME280;43999;51.660;5.616;2022-11-23T11:58:15;99430.09;;;12.33;84.09
59103;BME280;43999;51.660;5.616;2022-11-23T12:00:45;99396.69;;;12.35;84.66
59103;BME280;43999;51.660;5.616;2022-11-23T12:06:27;99396.22;;;12.51;85.12
59103;BME280;43999;51.660;5.616;2022-11-23T12:09:22;99398.16;;;12.49;85.75
59103;BME280;43999;51.660;5.616;2022-11-23T12:11:57;99403.91;;;12.43;83.83
59103;BME280;43999;51.660;5.616;2022-11-23T12:14:25;99393.03;;;12.26;85.09
59103;BME280;43999;51.660;5.616;2022-11-23T12:17:08;99395.25;;;12.10;86.09
59103;BME280;43999;51.660;5.616;2022-11-23T12:26:51;99399.47;;;12.22;88.29
59103;BME280;43999;51.660;5.616;2022-11-23T12:45:02;99375.13;;;13.03;84.00
59103;BME280;43999;51.660;5.616;2022-11-23T12:54:31;99368.72;;;12.96;81.99
59103;BME280;43999;51.660;5.616;2022-11-23T12:57:40;99360.81;;;12.86;80.36
59103;BME280;43999;51.660;5.616;2022-11-23T13:00:17;99365.31;;;12.64;80.83
59103;BME280;43999;51.660;5.616;2022-11-23T13:21:21;99349.00;;;11.76;83.38
59103;BME280;43999;51.660;5.616;2022-11-23T13:24:02;99337.97;;;11.61;85.81
59103;BME280;43999;51.660;5.616;2022-11-23T13:26:30;99344.94;;;11.51;85.86
59103;BME280;43999;51.660;5.616;2022-11-23T13:28:58;99354.50;;;11.41;86.71
59103;BME280;43999;51.660;5.616;2022-11-23T13:31:31;99363.81;;;11.34;87.45
59103;BME280;43999;51.660;5.616;2022-11-23T13:34:42;99362.66;;;11.26;89.02
59103;BME280;43999;51.660;5.616;2022-11-23T13:37:10;99372.78;;;11.20;89.39
59103;BME280;43999;51.660;5.616;2022-11-23T13:42:25;99383.31;;;11.08;89.27
59103;BME280;43999;51.660;5.616;2022-11-23T13:48:11;99398.34;;;10.95;90.14
59103;BME280;43999;51.660;5.616;2022-11-23T13:51:04;99398.22;;;10.85;90.11
59103;BME280;43999;51.660;5.616;2022-11-23T13:53:40;99406.44;;;10.81;91.32
59103;BME280;43999;51.660;5.616;2022-11-23T13:56:36;99413.72;;;10.77;92.11
59103;BME280;43999;51.660;5.616;2022-11-23T14:04:37;99416.19;;;10.45;99.43
59103;BME280;43999;51.660;5.616;2022-11-23T14:07:21;99420.84;;;10.05;100.00
59103;BME280;43999;51.660;5.616;2022-11-23T14:10:02;99417.13;;;9.73;100.00
59103;BME280;43999;51.660;5.616;2022-11-23T14:15:38;99425.09;;;9.10;100.00
59103;BME280;43999;51.660;5.616;2022-11-23T14:18:21;99423.16;;;8.88;100.00
59103;BME280;43999;51.660;5.616;2022-11-23T14:28:44;99435.66;;;8.31;100.00
59103;BME280;43999;51.660;5.616;2022-11-23T14:32:02;99433.97;;;8.17;100.00
59103;BME280;43999;51.660;5.616;2022-11-23T14:38:34;99445.41;;;8.02;100.00
59103;BME280;43999;51.660;5.616;2022-11-23T14:41:22;99458.75;;;7.97;100.00
59103;BME280;43999;51.660;5.616;2022-11-23T14:43:52;99470.41;;;7.92;100.00
59103;BME280;43999;51.660;5.616;2022-11-23T14:46:22;99464.75;;;7.85;100.00
59103;BME280;43999;51.660;5.616;2022-11-23T14:49:05;99478.94;;;7.81;100.00
59103;BME280;43999;51.660;5.616;2022-11-23T14:51:42;99470.56;;;7.76;100.00
59103;BME280;43999;51.660;5.616;2022-11-23T14:54:13;99484.66;;;7.73;100.00
59103;BME280;43999;51.660;5.616;2022-11-23T14:56:48;99486.78;;;7.66;100.00
59103;BME280;43999;51.660;5.616;2022-11-23T15:02:35;99497.59;;;7.60;100.00
59103;BME280;43999;51.660;5.616;2022-11-23T15:05:30;99510.09;;;7.55;100.00
59103;BME280;43999;51.660;5.616;2022-11-23T15:08:26;99513.00;;;7.50;100.00
59103;BME280;43999;51.660;5.616;2022-11-23T15:11:20;99517.56;;;7.47;100.00
59103;BME280;43999;51.660;5.616;2022-11-23T15:13:53;99520.19;;;7.47;100.00
59103;BME280;43999;51.660;5.616;2022-11-23T15:16:21;99513.00;;;7.50;100.00
59103;BME280;43999;51.660;5.616;2022-11-23T15:18:49;99502.47;;;7.52;100.00
59103;BME280;43999;51.660;5.616;2022-11-23T15:21:25;99509.47;;;7.51;100.00
59103;BME280;43999;51.660;5.616;2022-11-23T15:23:56;99509.66;;;7.48;100.00